createdAt,value
2023-09-01T00:00:47.212Z,72.11
2023-09-01T00:03:36.792Z,72.35
2023-09-01T00:06:12.403Z,72.32
2023-09-01T00:08:41.173Z,72.25
2023-09-01T00:11:09.281Z,72.13
2023-09-01T00:13:37.344Z,72.22
2023-09-01T00:16:05.958Z,72.29
2023-09-01T00:18:34.488Z,72.47
2023-09-01T00:21:04.958Z,72.74
2023-09-01T00:23:33.757Z,72.64
2023-09-01T00:26:02.871Z,72.61
2023-09-01T00:28:30.903Z,72.64
2023-09-01T00:31:01.399Z,72.63
2023-09-01T00:33:31.772Z,72.56
2023-09-01T00:36:01.441Z,72.31
2023-09-01T00:38:33.645Z,72.16
2023-09-01T00:41:01.850Z,72.12
2023-09-01T00:43:30.220Z,72.17
2023-09-01T00:45:59.507Z,72.03
2023-09-01T00:48:28.457Z,72.03
2023-09-01T00:50:56.771Z,72.00
2023-09-01T00:53:24.837Z,71.82
2023-09-01T00:55:54.262Z,71.98
2023-09-01T00:58:22.327Z,71.90
2023-09-01T01:00:50.367Z,71.77
2023-09-01T01:03:18.777Z,71.85
2023-09-01T01:06:26.044Z,71.77
2023-09-01T01:09:35.178Z,71.61
2023-09-01T01:12:34.443Z,71.51
2023-09-01T01:15:10.403Z,71.55
2023-09-01T01:17:45.048Z,71.76
2023-09-01T01:20:32.948Z,71.85
2023-09-01T01:23:18.147Z,72.00
2023-09-01T01:25:55.407Z,71.93
2023-09-01T01:28:26.368Z,71.98
2023-09-01T01:30:54.398Z,71.97
2023-09-01T01:33:31.210Z,71.89
2023-09-01T01:36:14.748Z,72.01
2023-09-01T01:38:46.557Z,71.99
2023-09-01T01:41:41.880Z,72.20
2023-09-01T01:44:12.082Z,72.28
2023-09-01T01:46:41.426Z,72.34
2023-09-01T01:49:10.998Z,72.31
2023-09-01T01:51:39.087Z,72.16
2023-09-01T01:54:07.167Z,72.22
2023-09-01T01:56:35.394Z,72.32
2023-09-01T01:59:06.127Z,72.30
2023-09-01T02:01:34.534Z,72.43
2023-09-01T02:04:02.809Z,72.31
2023-09-01T02:09:23.167Z,72.50
2023-09-01T02:11:51.380Z,72.42
2023-09-01T02:14:20.180Z,72.30
2023-09-01T02:16:48.155Z,72.28
2023-09-01T02:19:16.278Z,72.45
2023-09-01T02:21:46.265Z,72.44
2023-09-01T02:24:14.294Z,72.40
2023-09-01T02:26:42.479Z,72.58
2023-09-01T02:29:10.462Z,72.52
2023-09-01T02:31:39.229Z,72.78
2023-09-01T02:34:07.293Z,72.86
2023-09-01T02:36:36.811Z,72.77
2023-09-01T02:39:08.328Z,72.90
2023-09-01T02:41:36.751Z,72.76
2023-09-01T02:44:05.369Z,72.98
2023-09-01T02:46:33.500Z,72.98
2023-09-01T02:49:01.794Z,73.05
2023-09-01T02:51:30.171Z,73.23
2023-09-01T02:53:58.280Z,73.13
2023-09-01T02:56:26.379Z,73.04
2023-09-01T02:58:54.792Z,73.25
2023-09-01T03:01:22.798Z,73.29
2023-09-01T03:03:50.899Z,73.35
2023-09-01T03:06:19.043Z,73.49
2023-09-01T03:08:47.172Z,73.34
2023-09-01T03:11:15.186Z,73.42
2023-09-01T03:13:43.292Z,73.51
2023-09-01T03:16:11.530Z,73.53
2023-09-01T03:18:40.296Z,73.56
2023-09-01T03:21:11.748Z,73.44
2023-09-01T03:23:40.290Z,73.58
2023-09-01T03:26:08.394Z,73.57
2023-09-01T03:28:36.405Z,73.70
2023-09-01T03:31:10.917Z,73.76
2023-09-01T03:33:40.995Z,73.85
2023-09-01T03:36:09.460Z,73.84
2023-09-01T03:38:38.084Z,73.93
2023-09-01T03:41:07.507Z,73.80
2023-09-01T03:43:36.555Z,73.95
2023-09-01T03:46:04.741Z,74.01
2023-09-01T03:48:33.467Z,74.02
2023-09-01T03:51:09.902Z,74.21
2023-09-01T03:53:39.725Z,74.19
2023-09-01T03:56:12.852Z,74.23
2023-09-01T03:58:43.176Z,74.28
2023-09-01T04:01:14.075Z,74.39
2023-09-01T04:03:44.630Z,74.48
2023-09-01T04:06:13.937Z,74.44
2023-09-01T04:08:42.499Z,74.63
2023-09-01T04:11:11.152Z,74.67
2023-09-01T04:13:39.236Z,74.76
2023-09-01T04:16:07.393Z,74.80
2023-09-01T04:18:36.065Z,74.97
2023-09-01T04:21:04.290Z,75.09
2023-09-01T04:23:33.422Z,75.03
2023-09-01T04:26:03.589Z,75.07
2023-09-01T04:28:32.824Z,75.16
2023-09-01T04:31:03.091Z,75.39
2023-09-01T04:33:32.840Z,75.57
2023-09-01T04:36:02.528Z,75.38
2023-09-01T04:38:30.863Z,75.37
2023-09-01T04:41:00.936Z,75.29
2023-09-01T04:43:30.943Z,75.25
2023-09-01T04:45:59.835Z,75.19
2023-09-01T04:48:31.579Z,75.22
2023-09-01T04:51:03.916Z,75.04
2023-09-01T04:53:33.256Z,75.06
2023-09-01T04:56:01.974Z,75.12
2023-09-01T04:58:30.068Z,75.04
2023-09-01T05:00:58.241Z,74.87
2023-09-01T05:03:27.461Z,74.80
2023-09-01T05:05:58.294Z,75.20
2023-09-01T05:08:26.474Z,74.81
2023-09-01T05:10:54.510Z,74.56
2023-09-01T05:13:22.492Z,74.50
2023-09-01T05:15:50.547Z,74.39
2023-09-01T05:18:18.661Z,74.39
2023-09-01T05:20:49.525Z,74.35
2023-09-01T05:23:17.728Z,74.01
2023-09-01T05:25:52.050Z,74.03
2023-09-01T05:28:20.126Z,74.09
2023-09-01T05:30:48.668Z,73.94
2023-09-01T05:33:17.069Z,73.94
2023-09-01T05:35:45.146Z,73.78
2023-09-01T05:38:13.643Z,74.03
2023-09-01T05:40:42.009Z,73.87
2023-09-01T05:43:10.212Z,73.73
2023-09-01T05:45:38.816Z,73.35
2023-09-01T05:48:07.230Z,73.04
2023-09-01T05:50:35.520Z,72.83
2023-09-01T05:53:05.515Z,72.81
2023-09-01T05:55:33.628Z,72.76
2023-09-01T05:58:01.640Z,72.68
2023-09-01T06:00:33.084Z,72.54
2023-09-01T06:03:01.169Z,72.55
2023-09-01T06:05:29.945Z,72.47
2023-09-01T06:07:57.941Z,72.53
2023-09-01T06:10:25.947Z,72.33
2023-09-01T06:12:54.924Z,72.19
2023-09-01T06:15:23.117Z,71.99
2023-09-01T06:17:51.186Z,71.96
2023-09-01T06:20:20.686Z,71.86
2023-09-01T06:22:49.307Z,71.59
2023-09-01T06:25:17.443Z,71.43
2023-09-01T06:27:45.511Z,71.28
2023-09-01T06:30:14.300Z,71.19
2023-09-01T06:32:42.388Z,70.90
2023-09-01T06:35:10.413Z,70.78
2023-09-01T06:37:38.518Z,70.52
2023-09-01T06:40:07.026Z,70.40
2023-09-01T06:42:35.157Z,70.26
2023-09-01T06:45:04.748Z,70.10
2023-09-01T06:47:32.820Z,69.85
2023-09-01T06:50:00.846Z,69.94
2023-09-01T06:52:28.892Z,69.48
2023-09-01T06:54:56.954Z,69.24
2023-09-01T06:57:24.916Z,68.89
2023-09-01T06:59:52.924Z,68.90
2023-09-01T07:02:20.871Z,68.36
2023-09-01T07:04:50.393Z,68.08
2023-09-01T07:07:18.448Z,68.00
2023-09-01T07:09:46.527Z,68.05
2023-09-01T07:12:14.578Z,68.65
2023-09-01T07:14:42.590Z,68.28
2023-09-01T07:17:13.965Z,67.77
2023-09-01T07:19:42.875Z,67.03
2023-09-01T07:22:10.890Z,67.13
2023-09-01T07:24:39.011Z,66.71
2023-09-01T07:27:07.758Z,66.79
2023-09-01T07:29:35.758Z,66.52
2023-09-01T07:32:06.860Z,66.43
2023-09-01T07:34:35.439Z,66.07
2023-09-01T07:37:03.568Z,65.86
2023-09-01T07:39:31.557Z,65.57
2023-09-01T07:41:59.588Z,65.27
2023-09-01T07:44:27.570Z,65.29
2023-09-01T07:46:55.512Z,64.82
2023-09-01T07:49:23.465Z,64.94
2023-09-01T07:51:51.603Z,64.68
2023-09-01T07:54:19.628Z,64.53
2023-09-01T07:56:47.589Z,64.30
2023-09-01T07:59:15.614Z,63.97
2023-09-01T08:01:45.368Z,63.84
2023-09-01T08:04:13.351Z,63.72
2023-09-01T08:06:41.368Z,63.75
2023-09-01T08:09:09.384Z,63.57
2023-09-01T08:11:37.381Z,63.05
2023-09-01T08:14:05.381Z,63.03
2023-09-01T08:16:33.390Z,63.09
2023-09-01T08:19:03.560Z,62.86
2023-09-01T08:21:31.990Z,62.65
2023-09-01T08:23:59.959Z,62.37
2023-09-01T08:26:28.104Z,62.27
2023-09-01T08:28:57.237Z,62.08
2023-09-01T08:31:25.836Z,62.01
2023-09-01T08:33:55.408Z,61.69
2023-09-01T08:36:23.505Z,61.66
2023-09-01T08:38:51.567Z,61.21
2023-09-01T08:41:20.649Z,61.10
2023-09-01T08:43:51.969Z,61.21
2023-09-01T08:46:23.009Z,60.83
2023-09-01T08:48:51.293Z,60.61
2023-09-01T08:51:21.552Z,60.09
2023-09-01T08:53:51.297Z,60.33
2023-09-01T08:56:19.296Z,60.46
2023-09-01T08:58:47.566Z,60.03
2023-09-01T09:01:17.296Z,60.12
2023-09-01T09:03:45.498Z,59.98
2023-09-01T09:06:14.805Z,59.93
2023-09-01T09:08:43.276Z,59.65
2023-09-01T09:11:16.912Z,59.26
2023-09-01T09:13:51.232Z,59.14
2023-09-01T09:16:25.240Z,59.10
2023-09-01T09:18:53.399Z,59.10
2023-09-01T09:21:30.496Z,58.93
2023-09-01T09:26:32.773Z,58.89
2023-09-01T09:29:10.005Z,58.73
2023-09-01T09:31:41.087Z,58.70
2023-09-01T09:34:19.573Z,58.63
2023-09-01T09:36:48.983Z,58.20
2023-09-01T09:39:28.512Z,58.10
2023-09-01T09:41:58.278Z,58.06
2023-09-01T09:44:30.954Z,57.96
2023-09-01T09:46:59.268Z,57.88
2023-09-01T09:49:32.246Z,57.72
2023-09-01T09:52:01.915Z,57.68
2023-09-01T09:54:30.916Z,57.07
2023-09-01T09:57:01.304Z,57.16
2023-09-01T09:59:41.434Z,56.93
2023-09-01T10:02:25.147Z,56.87
2023-09-01T10:04:54.654Z,56.76
2023-09-01T10:07:24.169Z,56.33
2023-09-01T10:09:53.829Z,56.74
2023-09-01T10:12:22.495Z,56.70
2023-09-01T10:14:52.426Z,56.08
2023-09-01T10:17:22.906Z,56.15
2023-09-01T10:19:51.021Z,56.28
2023-09-01T10:22:19.635Z,56.58
2023-09-01T10:25:27.389Z,56.65
2023-09-01T10:28:15.339Z,56.50
2023-09-01T10:30:45.708Z,56.02
2023-09-01T10:33:26.206Z,55.60
2023-09-01T10:35:58.669Z,55.63
2023-09-01T10:38:35.707Z,55.38
2023-09-01T10:41:04.564Z,55.14
2023-09-01T10:43:32.572Z,55.45
2023-09-01T10:46:29.826Z,55.05
2023-09-01T10:49:01.903Z,54.33
2023-09-01T10:51:35.478Z,53.98
2023-09-01T10:54:23.684Z,54.08
2023-09-01T10:57:00.413Z,53.95
2023-09-01T10:59:37.097Z,53.95
2023-09-01T11:02:18.737Z,53.72
2023-09-01T11:04:47.903Z,53.65
2023-09-01T11:07:16.016Z,53.63
2023-09-01T11:09:43.941Z,53.28
2023-09-01T11:12:13.425Z,53.22
2023-09-01T11:15:00.782Z,52.75
2023-09-01T11:17:45.013Z,52.79
2023-09-01T11:20:17.745Z,52.58
2023-09-01T11:22:46.648Z,52.51
2023-09-01T11:25:16.696Z,52.30
2023-09-01T11:27:50.900Z,52.11
2023-09-01T11:30:20.818Z,51.99
2023-09-01T11:32:50.253Z,51.79
2023-09-01T11:35:30.014Z,51.86
2023-09-01T11:37:59.143Z,51.71
2023-09-01T11:40:29.317Z,51.55
2023-09-01T11:42:57.786Z,51.61
2023-09-01T11:45:25.790Z,51.56
2023-09-01T11:47:55.128Z,51.38
2023-09-01T11:50:23.631Z,51.35
2023-09-01T11:52:53.205Z,51.23
2023-09-01T11:55:35.981Z,51.01
2023-09-01T11:58:04.801Z,50.84
2023-09-01T12:00:40.116Z,50.89
2023-09-01T12:03:09.545Z,50.67
2023-09-01T12:05:40.768Z,50.52
2023-09-01T12:08:11.168Z,50.27
2023-09-01T12:10:39.363Z,50.28
2023-09-01T12:13:12.809Z,50.19
2023-09-01T12:16:01.056Z,50.15
2023-09-01T12:18:37.563Z,49.85
2023-09-01T12:21:08.744Z,49.74
2023-09-01T12:23:49.095Z,49.61
2023-09-01T12:26:17.517Z,49.41
2023-09-01T12:28:45.608Z,49.16
2023-09-01T12:31:15.725Z,49.10
2023-09-01T12:33:43.989Z,48.94
2023-09-01T12:36:14.099Z,48.77
2023-09-01T12:38:45.201Z,48.77
2023-09-01T12:41:13.436Z,48.51
2023-09-01T12:43:43.641Z,48.47
2023-09-01T12:46:11.647Z,48.36
2023-09-01T12:48:39.730Z,48.08
2023-09-01T12:51:07.880Z,48.24
2023-09-01T12:53:35.969Z,48.22
2023-09-01T12:56:04.141Z,48.09
2023-09-01T12:58:32.796Z,47.80
2023-09-01T13:01:07.269Z,47.76
2023-09-01T13:03:35.534Z,47.64
2023-09-01T13:06:11.554Z,47.61
2023-09-01T13:08:39.684Z,47.16
2023-09-01T13:11:11.585Z,47.54
2023-09-01T13:13:40.586Z,47.29
2023-09-01T13:16:13.121Z,46.91
2023-09-01T13:18:41.325Z,47.08
2023-09-01T13:21:10.393Z,47.12
2023-09-01T13:23:38.448Z,47.24
2023-09-01T13:26:11.478Z,47.33
2023-09-01T13:28:39.474Z,47.32
2023-09-01T13:31:07.456Z,47.41
2023-09-01T13:33:40.617Z,47.29
2023-09-01T13:36:09.238Z,47.29
2023-09-01T13:38:39.944Z,47.36
2023-09-01T13:41:08.735Z,47.35
2023-09-01T13:43:36.977Z,47.45
2023-09-01T13:46:24.159Z,47.20
2023-09-01T13:48:57.253Z,47.26
2023-09-01T13:51:29.852Z,47.16
2023-09-01T13:53:58.140Z,47.20
2023-09-01T13:56:26.344Z,47.13
2023-09-01T13:58:54.387Z,47.15
2023-09-01T14:01:22.421Z,47.01
2023-09-01T14:03:50.499Z,47.16
2023-09-01T14:06:18.537Z,47.27
2023-09-01T14:08:46.578Z,47.22
2023-09-01T14:11:14.947Z,47.25
2023-09-01T14:13:42.961Z,47.27
2023-09-01T14:16:12.490Z,47.27
2023-09-01T14:18:43.150Z,47.35
2023-09-01T14:21:11.363Z,47.32
2023-09-01T14:23:39.510Z,47.38
2023-09-01T14:26:07.686Z,47.14
2023-09-01T14:28:35.826Z,47.42
2023-09-01T14:31:04.414Z,47.40
2023-09-01T14:33:41.846Z,47.51
2023-09-01T14:36:16.055Z,47.62
2023-09-01T14:38:44.137Z,47.65
2023-09-01T14:41:19.391Z,47.71
2023-09-01T14:43:48.317Z,47.56
2023-09-01T14:46:19.020Z,47.39
2023-09-01T14:48:47.826Z,47.49
2023-09-01T14:51:16.642Z,47.61
2023-09-01T14:53:47.454Z,47.49
2023-09-01T14:56:17.849Z,47.37
2023-09-01T14:58:46.125Z,47.50
2023-09-01T15:01:14.143Z,47.55
2023-09-01T15:03:42.257Z,47.56
2023-09-01T15:06:10.516Z,47.56
2023-09-01T15:08:38.542Z,47.67
2023-09-01T15:11:06.711Z,47.81
2023-09-01T15:13:34.788Z,47.83
2023-09-01T15:16:02.853Z,47.80
2023-09-01T15:18:30.930Z,47.96
2023-09-01T15:21:06.693Z,47.98
2023-09-01T15:23:35.879Z,47.97
2023-09-01T15:26:04.142Z,48.03
2023-09-01T15:28:32.285Z,48.14
2023-09-01T15:31:00.339Z,48.21
2023-09-01T15:33:29.124Z,48.33
2023-09-01T15:36:00.477Z,48.33
2023-09-01T15:38:30.125Z,48.45
2023-09-01T15:41:02.184Z,48.55
2023-09-01T15:43:30.597Z,48.41
2023-09-01T15:45:59.392Z,48.47
2023-09-01T15:48:28.545Z,48.41
2023-09-01T15:50:58.545Z,48.65
2023-09-01T15:53:28.680Z,48.71
2023-09-01T15:55:58.697Z,48.82
2023-09-01T15:58:26.813Z,48.90
2023-09-01T16:01:03.609Z,49.08
2023-09-01T16:03:46.522Z,49.41
2023-09-01T16:06:21.684Z,49.62
2023-09-01T16:08:49.835Z,49.60
2023-09-01T16:11:17.830Z,49.75
2023-09-01T16:13:47.925Z,49.82
2023-09-01T16:16:15.958Z,50.00
2023-09-01T16:18:44.081Z,50.16
2023-09-01T16:21:12.093Z,50.46
2023-09-01T16:23:40.080Z,50.53
2023-09-01T16:26:08.088Z,50.44
2023-09-01T16:28:36.167Z,50.72
2023-09-01T16:31:04.459Z,50.93
2023-09-01T16:33:32.500Z,50.91
2023-09-01T16:36:02.007Z,50.98
2023-09-01T16:38:30.726Z,51.12
2023-09-01T16:41:00.132Z,51.24
2023-09-01T16:43:28.318Z,51.54
2023-09-01T16:45:56.549Z,51.76
2023-09-01T16:48:25.202Z,51.65
2023-09-01T16:50:53.218Z,51.80
2023-09-01T16:53:21.298Z,51.93
2023-09-01T16:55:49.795Z,52.27
2023-09-01T16:58:17.856Z,52.32
2023-09-01T17:00:47.083Z,52.49
2023-09-01T17:03:15.357Z,52.70
2023-09-01T17:05:46.523Z,52.85
2023-09-01T17:08:14.736Z,52.83
2023-09-01T17:10:42.837Z,53.13
2023-09-01T17:13:10.818Z,53.39
2023-09-01T17:15:40.440Z,53.47
2023-09-01T17:18:09.051Z,53.53
2023-09-01T17:20:52.604Z,53.75
2023-09-01T17:23:20.615Z,54.00
2023-09-01T17:25:48.572Z,53.93
2023-09-01T17:28:16.573Z,54.35
2023-09-01T17:30:44.722Z,54.39
2023-09-01T17:33:12.835Z,54.49
2023-09-01T17:35:40.825Z,54.77
2023-09-01T17:38:08.809Z,54.80
2023-09-01T17:40:37.726Z,54.91
2023-09-01T17:43:05.737Z,55.16
2023-09-01T17:45:33.742Z,55.40
2023-09-01T17:48:01.866Z,55.43
2023-09-01T17:50:29.962Z,55.65
2023-09-01T17:52:58.013Z,55.80
2023-09-01T17:55:29.234Z,56.02
2023-09-01T17:57:57.277Z,56.02
2023-09-01T18:00:25.287Z,56.27
2023-09-01T18:02:56.708Z,56.42
2023-09-01T18:05:25.081Z,56.48
2023-09-01T18:07:53.834Z,56.68
2023-09-01T18:10:21.863Z,56.94
2023-09-01T18:12:49.922Z,56.95
2023-09-01T18:15:19.032Z,57.06
2023-09-01T18:17:47.195Z,57.14
2023-09-01T18:20:19.832Z,57.24
2023-09-01T18:22:50.672Z,57.51
2023-09-01T18:25:19.141Z,57.62
2023-09-01T18:27:48.711Z,57.73
2023-09-01T18:30:17.913Z,58.07
2023-09-01T18:32:48.836Z,58.11
2023-09-01T18:35:20.172Z,58.14
2023-09-01T18:37:48.252Z,58.55
2023-09-01T18:40:23.938Z,58.76
2023-09-01T18:42:53.127Z,58.65
2023-09-01T18:45:27.326Z,58.58
2023-09-01T18:47:55.980Z,58.58
2023-09-01T18:50:24.173Z,58.87
2023-09-01T18:52:57.480Z,58.96
2023-09-01T18:55:25.661Z,58.97
2023-09-01T18:57:53.727Z,58.97
2023-09-01T19:00:25.028Z,59.37
2023-09-01T19:02:53.805Z,59.49
2023-09-01T19:05:33.189Z,59.54
2023-09-01T19:08:13.192Z,59.73
2023-09-01T19:10:42.141Z,59.92
2023-09-01T19:13:11.594Z,60.07
2023-09-01T19:15:40.616Z,60.05
2023-09-01T19:18:11.361Z,60.10
2023-09-01T19:20:42.603Z,60.16
2023-09-01T19:23:23.707Z,60.25
2023-09-01T19:25:51.808Z,60.58
2023-09-01T19:28:35.326Z,60.52
2023-09-01T19:31:06.286Z,60.65
2023-09-01T19:33:36.733Z,60.83
2023-09-01T19:36:05.263Z,60.98
2023-09-01T19:38:33.423Z,60.86
2023-09-01T19:41:01.922Z,60.95
2023-09-01T19:43:30.756Z,61.26
2023-09-01T19:46:00.640Z,61.23
2023-09-01T19:48:32.858Z,61.51
2023-09-01T19:51:02.166Z,61.63
2023-09-01T19:53:31.706Z,61.78
2023-09-01T19:56:23.218Z,62.05
2023-09-01T19:58:57.059Z,62.28
2023-09-01T20:01:28.524Z,62.31
2023-09-01T20:03:57.298Z,62.56
2023-09-01T20:06:27.393Z,62.64
2023-09-01T20:09:08.947Z,62.78
2023-09-01T20:11:37.031Z,62.90
2023-09-01T20:14:08.537Z,63.31
2023-09-01T20:16:41.720Z,63.43
2023-09-01T20:19:15.022Z,63.51
2023-09-01T20:21:43.201Z,63.84
2023-09-01T20:24:11.187Z,63.98
2023-09-01T20:26:39.219Z,63.87
2023-09-01T20:29:07.258Z,64.14
2023-09-01T20:31:37.508Z,64.35
2023-09-01T20:34:09.383Z,64.29
2023-09-01T20:36:37.675Z,64.38
2023-09-01T20:39:07.285Z,64.62
2023-09-01T20:41:35.455Z,64.75
2023-09-01T20:44:04.021Z,64.94
2023-09-01T20:46:32.121Z,65.20
2023-09-01T20:49:00.551Z,65.45
2023-09-01T20:51:28.592Z,65.43
2023-09-01T20:53:56.618Z,65.49
2023-09-01T20:56:24.631Z,65.86
2023-09-01T20:58:52.609Z,65.94
2023-09-01T21:01:20.731Z,66.09
2023-09-01T21:03:48.878Z,66.22
2023-09-01T21:06:16.930Z,66.31
2023-09-01T21:08:44.927Z,66.37
2023-09-01T21:11:14.396Z,66.55
2023-09-01T21:13:42.803Z,66.81
2023-09-01T21:16:10.900Z,66.83
2023-09-01T21:18:39.038Z,67.05
2023-09-01T21:21:07.091Z,67.18
2023-09-01T21:23:35.147Z,67.49
2023-09-01T21:26:03.438Z,67.68
2023-09-01T21:28:33.072Z,67.88
2023-09-01T21:31:01.428Z,68.38
2023-09-01T21:33:29.461Z,68.62
2023-09-01T21:35:57.589Z,68.70
2023-09-01T21:38:25.741Z,68.75
2023-09-01T21:40:53.802Z,69.04
2023-09-01T21:43:22.124Z,69.24
2023-09-01T21:45:50.232Z,69.51
2023-09-01T21:48:18.249Z,69.57
2023-09-01T21:50:46.215Z,69.68
2023-09-01T21:53:14.310Z,69.97
2023-09-01T21:55:42.663Z,70.03
2023-09-01T21:58:10.864Z,70.40
2023-09-01T22:00:38.916Z,70.53
2023-09-01T22:03:06.987Z,70.49
2023-09-01T22:05:35.113Z,70.79
2023-09-01T22:08:04.439Z,71.00
2023-09-01T22:10:32.539Z,70.90
2023-09-01T22:13:00.667Z,71.20
2023-09-01T22:15:28.726Z,71.40
2023-09-01T22:17:57.998Z,71.56
2023-09-01T22:20:26.572Z,71.68
2023-09-01T22:22:54.536Z,71.69
2023-09-01T22:25:22.551Z,71.73
2023-09-01T22:27:50.682Z,72.06
2023-09-01T22:30:19.239Z,72.07
2023-09-01T22:32:47.385Z,72.30
2023-09-01T22:35:15.481Z,72.53
2023-09-01T22:37:43.665Z,72.70
2023-09-01T22:40:12.057Z,72.74
2023-09-01T22:42:42.010Z,72.68
2023-09-01T22:45:11.858Z,72.89
2023-09-01T22:47:39.860Z,73.03
2023-09-01T22:50:08.315Z,73.06
2023-09-01T22:52:36.279Z,73.12
2023-09-01T22:55:04.930Z,73.39
2023-09-01T22:57:32.898Z,73.51
2023-09-01T23:00:00.898Z,73.68
2023-09-01T23:02:28.956Z,73.78
2023-09-01T23:04:56.968Z,73.92
2023-09-01T23:07:24.941Z,73.98
2023-09-01T23:09:53.030Z,74.20
2023-09-01T23:12:21.084Z,74.25
2023-09-01T23:14:49.141Z,74.37
2023-09-01T23:17:17.153Z,74.61
2023-09-01T23:19:45.157Z,74.62
2023-09-01T23:22:13.128Z,74.66
2023-09-01T23:24:41.074Z,74.88
2023-09-01T23:27:09.025Z,75.16
2023-09-01T23:29:36.990Z,75.20
2023-09-01T23:32:08.953Z,75.38
2023-09-01T23:34:37.158Z,75.39
2023-09-01T23:37:05.413Z,75.59
2023-09-01T23:39:34.695Z,75.70
2023-09-01T23:42:03.706Z,75.88
2023-09-01T23:44:31.754Z,75.97
2023-09-01T23:46:59.802Z,76.20
2023-09-01T23:49:27.847Z,76.13
2023-09-01T23:51:55.862Z,76.23
2023-09-01T23:54:23.849Z,76.38
2023-09-01T23:56:51.831Z,76.56
2023-09-01T23:59:20.438Z,76.66
